• Join FlightAware (Why Join?)
  • Login
  • US Flag 
01:50AM EST


 

Airport Tracker/Info


-or-


 

Live Flight TrackerFlight Track Log ✈ PDT4205 ✈ 30-Jul-2013 ✈ KHXD - KCLT

Flight Track Log - Related Links

Times and Time Zones

All times are in EDT time to prevent confusion due to time zone crossing. See the PDT4205 flight status page for this flight to view local times or setup timezone preferences in your user account.

Time Position Orientation Groundspeed Altitude Reporting Facility
EDT Latitude Longitude Course Direction KTS MPH feet Rate Location/Type
02:38PM 32.3297 -80.6183 30° Northeast 175 201 3,800  Level Jacksonville Center
02:39PM 32.3772 -80.5853 30° Northeast 170 196 4,900 1,140 Climbing Jacksonville Center
02:40PM 32.4164 -80.5597 29° Northeast 170 196 6,100 1,200 Climbing Jacksonville Center
02:41PM 32.4703 -80.5386 18° North 178 205 7,300 1,080 Climbing Jacksonville Center
02:42PM 32.5203 -80.5347 North 178 205 8,300 900 Climbing Jacksonville Center
02:43PM 32.5664 -80.5336 North 178 205 9,100 840 Climbing Jacksonville Center
02:44PM 32.6181 -80.5150 17° North 178 205 10,000 900 Climbing Jacksonville Center
02:45PM 32.6681 -80.5111 North 179 206 10,900 780 Climbing Jacksonville Center
02:46PM 32.7222 -80.5072 North 179 206 11,600 600 Climbing Jacksonville Center
02:47PM 32.7744 -80.5033 North 179 206 12,200 660 Climbing Jacksonville Center
02:48PM 32.8267 -80.4994 North 179 206 13,000 600 Climbing Jacksonville Center
02:49PM 32.8789 -80.5031 357° North 179 206 13,500 600 Climbing Jacksonville Center
02:50PM 32.9331 -80.5042 359° North 179 206 14,200 540 Climbing Jacksonville Center
02:51PM 32.9872 -80.4928 10° North 179 206 14,600 300 Climbing Jacksonville Center
02:52PM 33.0456 -80.4939 359° North 189 217 14,900 120 Climbing Jacksonville Center
02:53PM 33.1039 -80.4847 North 199 229 14,900  Level Jacksonville Center
02:54PM 33.1661 -80.4683 12° North 209 241 14,900  Level Jacksonville Center
02:55PM 33.2161 -80.4644 North 220 253 14,900  Level Jacksonville Center
02:56PM 33.2828 -80.4600 North 220 253 14,900  Level Jacksonville Center
02:57PM 33.3383 -80.4164 33° Northeast 220 253 14,900  Level Jacksonville Center
02:58PM 33.3917 -80.3725 34° Northeast 220 253 14,900  Level Jacksonville Center
02:59PM 33.4450 -80.3261 36° Northeast 232 267 14,900  Level Jacksonville Center
03:00PM 33.4983 -80.2797 36° Northeast 238 274 14,900  Level Jacksonville Center
03:01PM 33.5539 -80.2383 32° Northeast 238 274 14,900  Level Jacksonville Center
03:02PM 33.6072 -80.1919 36° Northeast 233 268 14,900  Level Jacksonville Center
03:03PM 33.6625 -80.1453 35° Northeast 233 268 14,900  Level Jacksonville Center
03:04PM 33.7178 -80.1011 34° Northeast 233 268 15,000 -60 Climbing Jacksonville Center
03:05PM 33.7711 -80.0519 37° Northeast 233 268 14,800 -360 Descending Jacksonville Center
03:06PM 33.8283 -80.0075 33° Northeast 233 268 14,300 -540 Descending Jacksonville Center
03:07PM 33.8856 -79.9481 41° Northeast 244 281 13,800 -600 Descending Jacksonville Center
03:08PM 33.9481 -79.9436 North 216 249 13,200 -600 Descending Jacksonville Center
03:09PM 34.0094 -79.9814 333° Northwest 216 249 12,600 -660 Descending Jacksonville Center
03:10PM 34.0767 -80.0094 341° North 230 265 11,900 -720 Descending Jacksonville Center
03:11PM 34.1400 -80.0425 337° Northwest 243 280 11,200 -720 Descending Jacksonville Center
03:12PM 34.2056 -80.0703 341° North 249 287 10,500 -660 Descending Jacksonville Center
03:13PM 34.2708 -80.1058 336° Northwest 249 287 9,900 -300 Descending Jacksonville Center
03:14PM 34.3322 -80.1367 337° Northwest 244 281 9,900  Level Jacksonville Center
03:15PM 34.3953 -80.1597 343° North 239 275 9,900  Level Jacksonville Center
03:16PM 34.4564 -80.1881 339° North 234 269 9,900  Level Jacksonville Center
03:17PM 34.5153 -80.2167 338° Northwest 234 269 9,900  Level Jacksonville Center
03:20PM 34.6767 -80.3031 336° Northwest 230 265 10,000  Climbing Atlanta Center
03:21PM 34.7136 -80.3569 310° West 228 262 10,000  Level Atlanta Center
03:22PM 34.7700 -80.4228 316° Northwest 227 261 10,000  Level Atlanta Center
03:23PM 34.8133 -80.4767 314° West 227 261 10,000  Level Atlanta Center
03:24PM 34.8628 -80.5278 320° Northwest 227 261 10,000  Level Atlanta Center
03:25PM 34.9061 -80.5917 310° West 228 262 10,000  Level Atlanta Center
03:26PM 34.9517 -80.6456 316° Northwest 229 264 10,000  Level Atlanta Center
03:27PM 34.9928 -80.7022 312° West 230 265 10,000  Level Atlanta Center
03:28PM 35.0400 -80.7561 317° Northwest 229 264 10,000 -420 Level Atlanta Center
03:29PM 35.0897 -80.8203 313° West 241 277 9,200 -540 Descending Atlanta Center
03:30PM 35.1589 -80.8303 353° North 255 293 9,000 -120 Descending Atlanta Center
03:31PM 35.2194 -80.8356 356° North 239 275 9,000 -900 Level Atlanta Center
03:32PM 35.2947 -80.8428 356° North 257 296 7,200 -1,740 Descending Atlanta Center
03:33PM 35.3703 -80.8525 354° North 253 291 5,300 -1,920 Descending Atlanta Center
03:34PM 35.4008 -80.9075 304° West 247 284 3,600 -1,200 Descending Atlanta Center
03:35PM 35.3497 -80.9475 213° Southwest 232 267 3,000 -840 Descending Atlanta Center
03:36PM 35.2956 -80.9469 180° South 185 213 2,000 -900 Descending Atlanta Center
03:37PM 35.2558 -80.9433 176° South 132 152 1,300 -780 Descending Atlanta Center